createdAt,value
2019-02-14T00:05:58.146Z,97.23
2019-02-14T00:15:58.149Z,97.72
2019-02-14T00:25:58.123Z,97.68
2019-02-14T00:35:58.108Z,97.83
2019-02-14T00:45:58.145Z,98.12
2019-02-14T00:55:57.984Z,98.44
2019-02-14T01:05:58.159Z,98.42
2019-02-14T01:15:58.073Z,98.77
2019-02-14T01:25:58.107Z,98.51
2019-02-14T01:35:58.065Z,98.64
2019-02-14T01:45:58.143Z,99.07
2019-02-14T01:55:58.139Z,98.82
2019-02-14T02:05:58.076Z,98.72
2019-02-14T02:15:58.142Z,98.85
2019-02-14T02:25:59.505Z,99.54
2019-02-14T02:36:00.415Z,99.38
2019-02-14T02:56:04.195Z,99.42
2019-02-14T03:06:10.199Z,99.91
2019-02-14T03:16:03.438Z,100.00
2019-02-14T03:26:03.534Z,99.19
2019-02-14T03:36:07.322Z,98.99
2019-02-14T03:46:03.633Z,99.39
2019-02-14T03:56:03.658Z,99.45
2019-02-14T04:06:03.369Z,99.72
2019-02-14T04:16:04.519Z,100.00
2019-02-14T04:26:03.493Z,100.00
2019-02-14T04:36:03.397Z,99.92
2019-02-14T04:46:03.482Z,100.00
2019-02-14T04:56:03.450Z,99.91
2019-02-14T05:06:03.404Z,100.00
2019-02-14T05:16:03.370Z,100.00
2019-02-14T05:26:03.389Z,100.00
2019-02-14T05:36:03.508Z,99.96
2019-02-14T05:46:03.405Z,100.00
2019-02-14T05:56:03.357Z,100.00
2019-02-14T06:06:03.490Z,100.00
2019-02-14T06:16:06.470Z,100.00
2019-02-14T06:26:03.430Z,100.00
2019-02-14T06:36:04.143Z,100.00
2019-02-14T06:46:03.532Z,99.90
2019-02-14T06:56:03.536Z,100.00
2019-02-14T07:06:03.487Z,100.00
2019-02-14T07:16:03.544Z,100.00
2019-02-14T07:26:03.506Z,99.32
2019-02-14T07:36:03.589Z,94.72
2019-02-14T07:46:03.537Z,93.22
2019-02-14T07:56:03.578Z,91.62
2019-02-14T08:06:03.453Z,82.47
2019-02-14T08:16:03.426Z,74.79
2019-02-14T08:26:10.649Z,73.58
2019-02-14T08:36:04.534Z,68.67
2019-02-14T08:46:03.392Z,67.80
2019-02-14T08:56:03.544Z,63.26
2019-02-14T09:06:03.654Z,60.50
2019-02-14T09:16:03.636Z,54.13
2019-02-14T09:26:03.377Z,47.80
2019-02-14T09:36:03.522Z,49.49
2019-02-14T09:46:03.604Z,47.55
2019-02-14T09:56:03.462Z,48.31
2019-02-14T10:06:03.772Z,42.53
2019-02-14T10:16:03.898Z,41.80
2019-02-14T10:26:04.016Z,40.92
2019-02-14T10:36:04.466Z,40.88
2019-02-14T10:46:03.604Z,39.12
2019-02-14T10:56:03.641Z,34.23
2019-02-14T11:06:03.493Z,34.96
2019-02-14T11:16:03.496Z,31.18
2019-02-14T11:26:03.402Z,24.19
2019-02-14T11:36:03.580Z,22.67
2019-02-14T11:46:03.445Z,20.39
2019-02-14T11:56:03.540Z,20.37
2019-02-14T12:06:03.594Z,18.82
2019-02-14T12:16:04.301Z,17.51
2019-02-14T12:26:05.509Z,16.48
2019-02-14T12:36:03.454Z,17.15
2019-02-14T12:46:04.403Z,15.55
2019-02-14T12:56:03.536Z,18.83
2019-02-14T13:06:03.475Z,18.50
2019-02-14T13:16:03.488Z,16.74
2019-02-14T13:26:03.537Z,17.83
2019-02-14T13:36:03.549Z,17.03
2019-02-14T13:46:03.473Z,16.98
2019-02-14T13:56:03.693Z,18.27
2019-02-14T14:06:03.671Z,18.01
2019-02-14T14:16:03.626Z,18.25
2019-02-14T14:26:03.891Z,18.73
2019-02-14T14:36:03.550Z,18.25
2019-02-14T14:46:03.576Z,19.77
2019-02-14T14:56:03.668Z,22.95
2019-02-14T15:06:03.547Z,30.72
2019-02-14T15:16:03.599Z,31.23
2019-02-14T15:26:03.656Z,33.94
2019-02-14T15:36:03.677Z,35.85
2019-02-14T15:46:03.711Z,38.58
2019-02-14T15:56:05.515Z,40.72
2019-02-14T16:26:30.571Z,43.70
2019-02-14T16:36:32.394Z,49.15
2019-02-14T16:46:31.181Z,50.96
2019-02-14T16:56:31.210Z,54.93
2019-02-14T17:06:30.239Z,57.16
2019-02-14T17:16:31.286Z,60.87
2019-02-14T17:26:30.238Z,63.41
2019-02-14T17:36:30.269Z,64.92
2019-02-14T17:46:30.399Z,66.76
2019-02-14T17:56:30.247Z,68.41
2019-02-14T18:06:30.314Z,69.39
2019-02-14T18:16:30.262Z,71.86
2019-02-14T18:26:30.418Z,73.58
2019-02-14T18:36:30.198Z,74.50
2019-02-14T18:46:30.171Z,75.20
2019-02-14T18:56:30.338Z,78.26
2019-02-14T19:06:30.546Z,78.35
2019-02-14T19:16:30.289Z,78.79
2019-02-14T19:26:30.467Z,79.50
2019-02-14T19:36:30.299Z,81.48
2019-02-14T19:46:30.442Z,82.14
2019-02-14T19:56:30.396Z,82.78
2019-02-14T20:06:30.300Z,84.27
2019-02-14T20:16:30.313Z,84.30
2019-02-14T20:26:30.295Z,85.06
2019-02-14T20:36:31.089Z,86.16
2019-02-14T20:46:30.250Z,85.90
2019-02-14T20:56:30.306Z,86.53
2019-02-14T21:06:31.331Z,87.59
2019-02-14T21:16:30.295Z,87.73
2019-02-14T21:26:30.186Z,89.14
2019-02-14T21:36:30.278Z,88.97
2019-02-14T21:46:30.225Z,89.14
2019-02-14T21:56:30.187Z,89.98
2019-02-14T22:06:30.212Z,90.52
2019-02-14T22:16:30.455Z,90.83
2019-02-14T22:26:30.504Z,90.57
2019-02-14T22:36:30.308Z,90.77
2019-02-14T22:46:30.279Z,91.18
2019-02-14T22:56:30.270Z,90.65
2019-02-14T23:06:31.782Z,91.12
2019-02-14T23:16:30.271Z,90.12
2019-02-14T23:26:30.363Z,90.58
2019-02-14T23:36:30.198Z,90.02
2019-02-14T23:46:30.231Z,90.69
2019-02-14T23:56:34.053Z,90.32
